createdAt,value
2018-09-17T00:00:36.414Z,22.02
2018-09-17T00:10:39.692Z,22.02
2018-09-17T00:20:42.861Z,22.04
2018-09-17T00:30:46.088Z,22.01
2018-09-17T00:40:49.236Z,22.01
2018-09-17T00:50:52.305Z,21.96
2018-09-17T01:00:55.569Z,22.00
2018-09-17T01:10:58.737Z,22.00
2018-09-17T01:21:02.592Z,21.99
2018-09-17T01:31:05.718Z,21.86
2018-09-17T01:41:08.845Z,21.86
2018-09-17T01:51:11.977Z,21.83
2018-09-17T02:01:15.064Z,21.83
2018-09-17T02:11:18.266Z,21.79
2018-09-17T02:21:21.439Z,21.80
2018-09-17T02:31:24.585Z,21.76
2018-09-17T02:41:27.625Z,21.78
2018-09-17T02:51:30.854Z,21.75
2018-09-17T03:01:33.972Z,21.71
2018-09-17T03:11:37.100Z,21.71
2018-09-17T03:21:40.133Z,21.68
2018-09-17T03:31:43.089Z,21.68
2018-09-17T03:41:46.322Z,21.66
2018-09-17T03:51:49.512Z,21.68
2018-09-17T04:01:53.171Z,21.63
2018-09-17T04:11:56.355Z,21.66
2018-09-17T04:21:59.429Z,21.63
2018-09-17T04:32:02.494Z,21.64
2018-09-17T04:42:05.513Z,21.59
2018-09-17T04:52:08.685Z,21.57
2018-09-17T05:02:11.841Z,21.59
2018-09-17T05:12:14.996Z,21.58
2018-09-17T05:22:18.005Z,21.56
2018-09-17T05:32:21.064Z,21.57
2018-09-17T05:42:24.061Z,21.57
2018-09-17T05:52:27.057Z,21.64
2018-09-17T06:02:30.200Z,21.56
2018-09-17T06:12:33.337Z,21.55
2018-09-17T06:22:36.757Z,21.56
2018-09-17T06:32:39.833Z,21.58
2018-09-17T06:42:42.963Z,21.55
2018-09-17T06:52:46.066Z,21.58
2018-09-17T07:02:49.098Z,21.72
2018-09-17T07:12:52.231Z,21.90
2018-09-17T07:22:55.291Z,21.92
2018-09-17T07:32:58.400Z,22.01
2018-09-17T07:43:01.469Z,21.79
2018-09-17T07:53:04.547Z,21.85
2018-09-17T08:03:07.681Z,22.18
2018-09-17T08:13:10.864Z,22.39
2018-09-17T08:23:13.998Z,22.42
2018-09-17T08:33:17.107Z,22.52
2018-09-17T08:43:20.249Z,22.98
2018-09-17T08:53:23.502Z,23.06
2018-09-17T09:03:31.621Z,23.41
2018-09-17T09:13:38.913Z,23.52
2018-09-17T09:23:41.963Z,23.20
2018-09-17T09:33:44.427Z,23.56
2018-09-17T09:43:46.956Z,23.55
2018-09-17T09:53:49.473Z,23.39
2018-09-17T10:03:57.231Z,23.37
2018-09-17T10:14:05.172Z,23.85
2018-09-17T10:24:07.705Z,23.68
2018-09-17T10:34:10.301Z,23.73
2018-09-17T10:44:12.763Z,23.71
2018-09-17T10:54:15.274Z,23.55
2018-09-17T11:04:17.668Z,23.59
2018-09-17T11:14:20.145Z,23.54
2018-09-17T11:24:22.900Z,23.82
2018-09-17T11:34:25.351Z,23.85
2018-09-17T11:44:27.687Z,23.87
2018-09-17T11:54:30.068Z,23.72
2018-09-17T12:04:38.029Z,23.61
2018-09-17T12:14:40.414Z,23.97
2018-09-17T12:24:42.913Z,23.76
2018-09-17T12:34:45.233Z,23.91
2018-09-17T12:44:48.387Z,23.83
2018-09-17T12:54:50.932Z,23.97
2018-09-17T13:04:53.469Z,23.99
2018-09-17T13:14:56.634Z,23.74
2018-09-17T13:24:58.886Z,24.23
2018-09-17T13:35:01.179Z,24.37
2018-09-17T13:45:03.602Z,24.47
2018-09-17T13:55:06.040Z,24.74
2018-09-17T14:05:08.386Z,24.51
2018-09-17T14:15:10.968Z,24.58
2018-09-17T14:25:13.411Z,24.58
2018-09-17T14:35:15.771Z,24.66
2018-09-17T14:45:18.393Z,24.65
2018-09-17T14:55:20.849Z,24.67
2018-09-17T15:05:23.874Z,24.98
2018-09-17T15:15:27.029Z,24.90
2018-09-17T15:25:29.885Z,24.97
2018-09-17T15:35:33.033Z,25.05
2018-09-17T15:45:36.176Z,24.87
2018-09-17T15:55:39.266Z,24.74
2018-09-17T16:05:42.297Z,24.86
2018-09-17T16:15:47.035Z,25.00
2018-09-17T16:25:50.133Z,24.84
2018-09-17T16:35:53.426Z,24.73
2018-09-17T16:45:56.643Z,24.60
2018-09-17T16:55:59.763Z,24.82
2018-09-17T17:06:03.005Z,24.83
2018-09-17T17:16:06.129Z,24.81
2018-09-17T17:26:09.352Z,24.77
2018-09-17T17:36:12.469Z,25.07
2018-09-17T17:46:15.541Z,25.03
2018-09-17T17:56:18.708Z,24.92
2018-09-17T18:06:21.788Z,25.04
2018-09-17T18:16:29.380Z,24.91
2018-09-17T18:26:32.404Z,24.89
2018-09-17T18:36:35.704Z,24.99
2018-09-17T18:46:38.849Z,24.87
2018-09-17T18:56:42.097Z,24.77
2018-09-17T19:06:45.096Z,24.77
2018-09-17T19:16:49.529Z,24.85
2018-09-17T19:26:52.657Z,24.72
2018-09-17T19:36:59.949Z,24.82
2018-09-17T19:47:03.175Z,24.78
2018-09-17T19:57:11.142Z,24.67
2018-09-17T20:07:15.456Z,24.72
2018-09-17T20:17:18.657Z,24.79
2018-09-17T20:27:21.671Z,24.81
2018-09-17T20:37:24.801Z,24.56
2018-09-17T20:47:28.041Z,24.32
2018-09-17T20:57:31.180Z,24.35
2018-09-17T21:07:34.269Z,24.17
2018-09-17T21:17:37.369Z,24.06
2018-09-17T21:27:40.743Z,24.11
2018-09-17T21:37:44.110Z,24.05
2018-09-17T21:47:50.023Z,23.94
2018-09-17T21:57:53.081Z,23.94
2018-09-17T22:07:56.172Z,23.97
2018-09-17T22:17:59.293Z,23.82
2018-09-17T22:28:02.694Z,23.77
2018-09-17T22:38:05.833Z,23.76
2018-09-17T22:48:09.084Z,23.74
2018-09-17T22:58:12.508Z,23.70
2018-09-17T23:08:15.711Z,23.68
2018-09-17T23:18:20.386Z,23.63
2018-09-17T23:28:25.341Z,23.55
2018-09-17T23:38:29.093Z,23.55
2018-09-17T23:48:32.878Z,23.55
2018-09-17T23:58:36.421Z,23.47
